createdAt,value
2023-02-15T00:00:40.292Z,81.97
2023-02-15T00:04:40.540Z,79.07
2023-02-15T00:08:41.131Z,97.1
2023-02-15T00:12:40.500Z,95.03
2023-02-15T00:16:40.316Z,96.6
2023-02-15T00:20:40.548Z,91.7
2023-02-15T00:24:40.817Z,92.03
2023-02-15T00:28:40.473Z,103.7
2023-02-15T00:32:40.522Z,104.87
2023-02-15T00:36:40.390Z,86.63
2023-02-15T00:40:40.384Z,99.53
2023-02-15T00:44:39.285Z,99.9
2023-02-15T00:48:40.546Z,100.17
2023-02-15T00:52:40.517Z,99.17
2023-02-15T00:56:41.211Z,97.97
2023-02-15T01:00:40.307Z,96.83
2023-02-15T01:04:40.425Z,96.57
2023-02-15T01:08:40.544Z,91.97
2023-02-15T01:12:40.476Z,92.53
2023-02-15T01:16:41.231Z,88.8
2023-02-15T01:20:40.499Z,97.3
2023-02-15T01:24:40.858Z,87.77
2023-02-15T01:28:40.636Z,106.47
2023-02-15T01:32:40.710Z,100.5
2023-02-15T01:36:40.544Z,88.8
2023-02-15T01:40:40.562Z,81.67
2023-02-15T01:44:40.951Z,86.9
2023-02-15T01:48:40.571Z,92.97
2023-02-15T01:52:40.341Z,85.47
2023-02-15T01:56:40.864Z,105.33
2023-02-15T02:00:40.764Z,85.2
2023-02-15T02:04:40.499Z,76.73
2023-02-15T02:08:40.303Z,89.43
2023-02-15T02:12:40.614Z,91.53
2023-02-15T02:16:40.349Z,84.07
2023-02-15T02:20:40.647Z,79.47
2023-02-15T02:24:40.692Z,96.53
2023-02-15T02:28:40.562Z,85.53
2023-02-15T02:32:40.877Z,90.6
2023-02-15T02:36:40.638Z,88.1
2023-02-15T02:40:40.699Z,85.57
2023-02-15T02:44:40.520Z,89.27
2023-02-15T02:48:40.689Z,71.33
2023-02-15T02:52:40.465Z,72.3
2023-02-15T02:56:40.452Z,78.3
2023-02-15T03:00:40.599Z,82.7
2023-02-15T03:04:40.672Z,79.93
2023-02-15T03:08:40.413Z,70.7
2023-02-15T03:12:40.561Z,100.13
2023-02-15T03:16:40.665Z,78.83
2023-02-15T03:20:41.010Z,76.17
2023-02-15T03:24:40.466Z,74.43
2023-02-15T03:28:40.718Z,80.63
2023-02-15T03:32:40.703Z,81.33
2023-02-15T03:36:40.422Z,72.67
2023-02-15T03:40:40.549Z,76.5
2023-02-15T03:44:40.556Z,74.47
2023-02-15T03:48:40.539Z,74.5
2023-02-15T03:52:40.646Z,84.23
2023-02-15T03:56:40.764Z,63.63
2023-02-15T04:00:40.894Z,75.3
2023-02-15T04:04:40.668Z,77.63
2023-02-15T04:08:40.537Z,77.53
2023-02-15T04:12:40.485Z,79.77
2023-02-15T04:16:40.774Z,72
2023-02-15T04:20:40.502Z,61.73
2023-02-15T04:24:40.669Z,78.63
2023-02-15T04:28:40.574Z,67.2
2023-02-15T04:32:40.647Z,85.17
2023-02-15T04:36:40.740Z,76.17
2023-02-15T04:40:40.724Z,78.07
2023-02-15T04:44:40.474Z,74.6
2023-02-15T04:48:39.869Z,84.07
2023-02-15T04:52:41.199Z,82.33
2023-02-15T04:56:40.740Z,75.03
2023-02-15T05:00:40.789Z,88.23
2023-02-15T05:04:40.453Z,81.83
2023-02-15T05:08:40.924Z,73.4
2023-02-15T05:12:40.577Z,77.1
2023-02-15T05:16:41.267Z,84.23
2023-02-15T05:20:40.750Z,70.3
2023-02-15T05:24:40.679Z,69.13
2023-02-15T05:28:39.816Z,74.43
2023-02-15T05:32:39.963Z,87.3
2023-02-15T05:36:40.681Z,68.7
2023-02-15T05:40:40.173Z,75.57
2023-02-15T05:44:40.806Z,79.17
2023-02-15T05:48:40.700Z,75.2
2023-02-15T05:52:39.855Z,83.7
2023-02-15T05:56:40.381Z,75.17
2023-02-15T06:00:40.640Z,72.73
2023-02-15T06:04:40.837Z,62.2
2023-02-15T06:08:40.630Z,75.23
2023-02-15T06:12:39.565Z,84.87
2023-02-15T06:16:40.601Z,79.97
2023-02-15T06:20:40.621Z,85.77
2023-02-15T06:24:40.758Z,63.5
2023-02-15T06:28:40.490Z,65.77
2023-02-15T06:32:41.190Z,73.13
2023-02-15T06:36:40.492Z,76.47
2023-02-15T06:40:40.266Z,83.83
2023-02-15T06:44:40.524Z,70.73
2023-02-15T06:48:40.579Z,77.8
2023-02-15T06:52:40.673Z,77.17
2023-02-15T06:56:40.939Z,82.6
2023-02-15T07:00:40.613Z,74.73
2023-02-15T07:04:40.521Z,91.93
2023-02-15T07:08:40.688Z,99.17
2023-02-15T07:12:40.840Z,94.13
2023-02-15T07:16:40.699Z,94.4
2023-02-15T07:20:40.465Z,97.47
2023-02-15T07:24:40.542Z,108.63
2023-02-15T07:28:40.895Z,104.37
2023-02-15T07:32:40.439Z,115.87
2023-02-15T07:36:40.707Z,117.77
2023-02-15T07:40:40.608Z,129.1
2023-02-15T07:44:40.461Z,125.93
2023-02-15T07:48:40.950Z,125.3
2023-02-15T07:52:40.600Z,130.3
2023-02-15T07:56:41.259Z,126.97
2023-02-15T08:00:40.560Z,130.87
2023-02-15T08:04:41.161Z,131.17
2023-02-15T08:08:40.311Z,134.9
2023-02-15T08:12:40.344Z,143.8
2023-02-15T08:16:40.499Z,139.97
2023-02-15T08:20:40.533Z,138.9
2023-02-15T08:24:40.489Z,129.23
2023-02-15T08:28:40.508Z,157.83
2023-02-15T08:32:41.023Z,153.57
2023-02-15T08:36:40.485Z,157.13
2023-02-15T08:40:40.536Z,141.87
2023-02-15T08:44:40.567Z,145.17
2023-02-15T08:48:40.561Z,129.4
2023-02-15T08:52:40.830Z,128.73
2023-02-15T08:56:40.687Z,129.17
2023-02-15T09:00:40.668Z,120.3
2023-02-15T09:04:40.484Z,113
2023-02-15T09:08:40.499Z,109.07
2023-02-15T09:12:40.528Z,107.8
2023-02-15T09:16:40.656Z,102.9
2023-02-15T09:20:40.553Z,98.6
2023-02-15T09:24:40.481Z,92.93
2023-02-15T09:28:40.465Z,90.37
2023-02-15T09:32:40.245Z,88.57
2023-02-15T09:36:40.345Z,84.7
2023-02-15T09:40:40.526Z,75.1
2023-02-15T09:44:40.491Z,69.4
2023-02-15T09:48:40.440Z,73.87
2023-02-15T09:52:41.043Z,58.33
2023-02-15T09:56:40.307Z,69.3
2023-02-15T10:00:40.913Z,61.13
2023-02-15T10:04:40.322Z,63.87
2023-02-15T10:08:40.816Z,58.73
2023-02-15T10:12:40.255Z,51.15
2023-02-15T10:16:40.586Z,54.13
2023-02-15T10:20:40.755Z,46.35
2023-02-15T10:24:41.584Z,43.55
2023-02-15T10:28:40.599Z,48
2023-02-15T10:32:40.697Z,43.9
2023-02-15T10:36:40.295Z,51
2023-02-15T10:40:41.280Z,44.4
2023-02-15T10:44:40.601Z,41.42
2023-02-15T10:48:40.516Z,42.67
2023-02-15T10:52:40.674Z,46.42
2023-02-15T10:56:40.521Z,40.45
2023-02-15T11:00:40.634Z,44.28
2023-02-15T11:04:41.301Z,43.17
2023-02-15T11:08:40.748Z,40.05
2023-02-15T11:12:40.693Z,40.58
2023-02-15T11:16:41.248Z,40.72
2023-02-15T11:20:40.071Z,41.2
2023-02-15T11:24:40.519Z,41.7
2023-02-15T11:28:40.662Z,43.75
2023-02-15T11:32:40.761Z,39.47
2023-02-15T11:36:40.642Z,40.2
2023-02-15T11:40:40.692Z,39.2
2023-02-15T11:44:40.647Z,41.08
2023-02-15T11:48:40.879Z,37.67
2023-02-15T11:52:40.299Z,36.6
2023-02-15T11:56:40.507Z,35.65
2023-02-15T12:00:40.696Z,39
2023-02-15T12:04:40.634Z,35.45
2023-02-15T12:08:40.561Z,41.88
2023-02-15T12:12:41.106Z,38.15
2023-02-15T12:16:40.601Z,37.25
2023-02-15T12:20:40.613Z,35.22
2023-02-15T12:24:40.606Z,38.63
2023-02-15T12:28:41.121Z,41.5
2023-02-15T12:32:39.458Z,50.7
2023-02-15T12:36:40.410Z,31.92
2023-02-15T12:40:40.562Z,33.88
2023-02-15T12:44:40.710Z,36.63
2023-02-15T12:48:40.962Z,36.78
2023-02-15T12:52:40.347Z,38.63
2023-02-15T12:56:40.425Z,31.12
2023-02-15T13:00:40.508Z,29.65
2023-02-15T13:04:40.654Z,39
2023-02-15T13:08:40.625Z,35.55
2023-02-15T13:12:40.680Z,35
2023-02-15T13:16:40.478Z,34.13
2023-02-15T13:20:40.568Z,31.05
2023-02-15T13:24:40.708Z,33.92
2023-02-15T13:28:41.055Z,27.58
2023-02-15T13:32:41.132Z,28.83
2023-02-15T13:36:40.381Z,30.9
2023-02-15T13:40:40.547Z,30.42
2023-02-15T13:44:40.761Z,30.25
2023-02-15T13:48:48.389Z,27.85
2023-02-15T13:52:40.497Z,29.83
2023-02-15T13:56:40.707Z,27.73
2023-02-15T14:00:40.787Z,28.75
2023-02-15T14:04:40.473Z,27.37
2023-02-15T14:08:40.636Z,31.05
2023-02-15T14:12:41.303Z,29.4
2023-02-15T14:16:40.674Z,27.23
2023-02-15T14:20:40.799Z,29.3
2023-02-15T14:24:40.500Z,26.1
2023-02-15T14:28:40.522Z,26.7
2023-02-15T14:32:40.970Z,27.85
2023-02-15T14:36:40.438Z,27.73
2023-02-15T14:40:40.474Z,30.48
2023-02-15T14:44:40.643Z,24.87
2023-02-15T14:48:40.462Z,25.45
2023-02-15T14:52:40.499Z,24.45
2023-02-15T14:56:40.533Z,26.83
2023-02-15T15:00:40.022Z,26.6
2023-02-15T15:04:40.593Z,26.75
2023-02-15T15:08:40.310Z,27.02
2023-02-15T15:12:40.537Z,27.8
2023-02-15T15:16:40.593Z,25.6
2023-02-15T15:20:40.487Z,32.4
2023-02-15T15:24:40.466Z,28.3
2023-02-15T15:28:40.486Z,28.45
2023-02-15T15:32:40.681Z,25.3
2023-02-15T15:36:40.631Z,28.75
2023-02-15T15:40:40.483Z,29.45
2023-02-15T15:44:40.810Z,31.08
2023-02-15T15:48:40.536Z,30.92
2023-02-15T15:52:40.629Z,27.62
2023-02-15T15:56:40.014Z,29.95
2023-02-15T16:00:41.094Z,36.92
2023-02-15T16:04:40.756Z,37.75
2023-02-15T16:08:40.538Z,35.22
2023-02-15T16:12:40.283Z,40.95
2023-02-15T16:16:40.694Z,43.85
2023-02-15T16:20:40.569Z,43
2023-02-15T16:24:40.545Z,39.05
2023-02-15T16:28:40.832Z,41.95
2023-02-15T16:32:40.847Z,42.83
2023-02-15T16:36:40.655Z,45.47
2023-02-15T16:40:40.610Z,47
2023-02-15T16:44:40.466Z,48.17
2023-02-15T16:48:40.431Z,50.7
2023-02-15T16:52:40.866Z,53.3
2023-02-15T16:56:40.548Z,50.1
2023-02-15T17:00:40.937Z,53.37
2023-02-15T17:04:40.588Z,53.1
2023-02-15T17:08:40.823Z,53.23
2023-02-15T17:12:40.589Z,50.53
2023-02-15T17:16:41.338Z,57.23
2023-02-15T17:20:40.676Z,59.8
2023-02-15T17:24:40.579Z,53.73
2023-02-15T17:28:40.907Z,54.17
2023-02-15T17:32:40.556Z,57
2023-02-15T17:36:40.842Z,54.83
2023-02-15T17:40:40.498Z,65.23
2023-02-15T17:44:40.533Z,56.5
2023-02-15T17:48:40.579Z,57.27
2023-02-15T17:52:40.538Z,57.8
2023-02-15T17:56:40.689Z,57.5
2023-02-15T18:00:40.969Z,52.63
2023-02-15T18:04:40.655Z,55.57
2023-02-15T18:08:40.443Z,55.5
2023-02-15T18:12:40.518Z,52.2
2023-02-15T18:16:40.628Z,50.47
2023-02-15T18:20:40.604Z,56.6
2023-02-15T18:24:40.705Z,55.2
2023-02-15T18:28:40.505Z,58.47
2023-02-15T18:32:40.663Z,61.27
2023-02-15T18:36:40.600Z,59.7
2023-02-15T18:40:40.340Z,65.33
2023-02-15T18:44:42.261Z,57.93
2023-02-15T18:48:40.522Z,63.1
2023-02-15T18:52:40.693Z,50.63
2023-02-15T18:56:40.632Z,61.03
2023-02-15T19:00:40.403Z,63.4
2023-02-15T19:04:40.468Z,60.5
2023-02-15T19:08:40.540Z,63.93
2023-02-15T19:12:41.194Z,63.47
2023-02-15T19:16:40.439Z,62.47
2023-02-15T19:20:40.495Z,60.6
2023-02-15T19:24:39.946Z,64.27
2023-02-15T19:28:41.074Z,64.93
2023-02-15T19:32:40.783Z,62.4
2023-02-15T19:36:40.685Z,59.23
2023-02-15T19:40:40.598Z,59.47
2023-02-15T19:44:40.492Z,64.57
2023-02-15T19:48:40.694Z,57.13
2023-02-15T19:52:40.900Z,60.6
2023-02-15T19:56:40.777Z,58.37
2023-02-15T20:00:40.817Z,71.73
2023-02-15T20:04:40.574Z,60.97
2023-02-15T20:08:40.813Z,62.17
2023-02-15T20:12:42.057Z,62.97
2023-02-15T20:16:40.626Z,64.2
2023-02-15T20:20:40.651Z,55
2023-02-15T20:24:40.513Z,63.73
2023-02-15T20:28:40.587Z,58.93
2023-02-15T20:32:40.864Z,70.97
2023-02-15T20:36:40.519Z,63.93
2023-02-15T20:40:40.636Z,59
2023-02-15T20:44:40.577Z,60.13
2023-02-15T20:48:40.578Z,63.27
2023-02-15T20:52:41.141Z,58.87
2023-02-15T20:56:40.513Z,68.17
2023-02-15T21:00:40.173Z,65.23
2023-02-15T21:04:39.492Z,67.13
2023-02-15T21:08:40.989Z,73.53
2023-02-15T21:12:40.424Z,62.43
2023-02-15T21:16:40.660Z,68.2
2023-02-15T21:20:40.537Z,62.4
2023-02-15T21:24:40.850Z,53.7
2023-02-15T21:28:41.168Z,66.13
2023-02-15T21:32:40.943Z,65.17
2023-02-15T21:36:40.545Z,68.37
2023-02-15T21:40:40.551Z,69.6
2023-02-15T21:44:40.706Z,66.67
2023-02-15T21:48:39.677Z,75.97
2023-02-15T21:52:40.788Z,69.07
2023-02-15T21:56:40.393Z,68.17
2023-02-15T22:00:40.314Z,64.83
2023-02-15T22:04:40.288Z,66.53
2023-02-15T22:08:40.930Z,69.73
2023-02-15T22:12:40.719Z,55.8
2023-02-15T22:16:40.527Z,62.23
2023-02-15T22:20:40.847Z,67.2
2023-02-15T22:24:40.340Z,57.33
2023-02-15T22:28:40.569Z,68.17
2023-02-15T22:32:40.833Z,67.8
2023-02-15T22:36:40.469Z,61.7
2023-02-15T22:40:40.630Z,71.2
2023-02-15T22:44:40.506Z,60.2
2023-02-15T22:48:40.565Z,61.83
2023-02-15T22:52:40.510Z,57.63
2023-02-15T22:56:40.573Z,60.97
2023-02-15T23:00:40.911Z,61.5
2023-02-15T23:04:40.534Z,70.23
2023-02-15T23:08:40.519Z,55.03
2023-02-15T23:12:40.407Z,62.97
2023-02-15T23:16:40.435Z,71.37
2023-02-15T23:20:40.495Z,71
2023-02-15T23:24:40.930Z,59.2
2023-02-15T23:28:40.610Z,57.1
2023-02-15T23:32:40.930Z,58.73
2023-02-15T23:36:40.539Z,72.4
2023-02-15T23:40:40.690Z,57.67
2023-02-15T23:44:40.640Z,63.5
2023-02-15T23:48:40.408Z,65.87
2023-02-15T23:52:40.520Z,58.03
2023-02-15T23:56:40.818Z,57.93
